Los Ranchos de Albuquerque, New Mexico
Current Conditions -  °F | °C
As of 4:15 AM on Sunday 23 Nov 2014 (Local Time) from KAEG Reporting Station
Clear Clear  
Wind Chill: 33°   Ceiling: Unl
Heat Index: 40°   Visibility: 10mi
Dew Point: 19°   Wind: 12mph
Humidity: 42%   Direction: 250°WSW
Pressure: 29.79"   Gusts: NA
Location:  35.1989°N, 106.703°W
Report Text: KAEG 231115Z AUTO 25010KT 10SM CLR 05/M07 A2979 RMK AO2 T00451075
Loading
Personal Weather Stations






























Interactive Weather Map New forecast layout! Learn more

10-Day Weather Forecast

Advertisements
Track Severe Weather on mobile